METAR Data
IDs: Format: Raw Decoded Include TAF

Data at: 1402 UTC 10 Jul 2020

KIAH 101353Z 19006KT 10SM BKN016 29/25 A3004 RMK AO2 SLP172 T02940250

KIAH 101125Z 1012/1118 VRB03KT P6SM SCT015
  FM101400 20006KT P6SM SCT035
  FM102000 16006KT P6SM SCT120
  FM111200 VRB04KT P6SM BKN025
  FM111400 24006KT P6SM SCT021